Dzhusaly, Kazakhstan
Current Conditions -  °F | °C
As of 2:00 AM on Tuesday 21 Oct 2014 (Local Time) from UAOO Reporting Station
Broken Clouds Broken Clouds  
Wind Chill: 29°   Ceiling: 2400
Heat Index: 37°   Visibility: 6mi
Dew Point: 32°   Wind: 13mph
Humidity: 81%   Direction: 300°WNW
Pressure: 30.21"   Gusts: NA
Location:  45.5°N, 64.09°E
Report Text: UAOO 202100Z 30006MPS 9999 BKN024CB BKN100 03/00 Q1023 NOSIGRMK QFE755/1007
Loading
Personal Weather Stations






























Interactive Weather Map
Tropical Storm Tracking
New forecast layout! Learn more

10-Day Weather Forecast

Advertisements
Track Severe Weather on mobile